createdAt,value
2019-04-07T00:00:43.672Z,11.37
2019-04-07T00:01:43.426Z,11.33
2019-04-07T00:02:43.358Z,11.29
2019-04-07T00:03:43.683Z,11.15
2019-04-07T00:04:43.374Z,11.17
2019-04-07T00:05:47.241Z,11.11
2019-04-07T00:06:43.309Z,11.06
2019-04-07T00:07:43.600Z,11.04
2019-04-07T00:08:43.308Z,11.19
2019-04-07T00:09:43.658Z,11.10
2019-04-07T00:10:43.822Z,11.09
2019-04-07T00:11:43.247Z,11.07
2019-04-07T00:12:43.240Z,11.07
2019-04-07T00:13:43.233Z,11.04
2019-04-07T00:14:43.751Z,11.10
2019-04-07T00:15:43.307Z,11.11
2019-04-07T00:16:43.790Z,11.04
2019-04-07T00:17:43.241Z,11.18
2019-04-07T00:18:43.209Z,10.97
2019-04-07T00:19:43.607Z,11.03
2019-04-07T00:20:43.805Z,11.18
2019-04-07T00:21:43.147Z,11.22
2019-04-07T00:22:43.173Z,11.10
2019-04-07T00:23:43.115Z,11.14
2019-04-07T00:24:43.123Z,11.14
2019-04-07T00:25:43.145Z,11.14
2019-04-07T00:26:43.081Z,11.06
2019-04-07T00:27:43.687Z,11.10
2019-04-07T00:28:43.639Z,11.06
2019-04-07T00:29:43.055Z,11.03
2019-04-07T00:30:43.083Z,11.09
2019-04-07T00:31:43.131Z,10.96
2019-04-07T00:32:43.015Z,11.02
2019-04-07T00:33:43.740Z,10.97
2019-04-07T00:34:43.003Z,11.03
2019-04-07T00:35:44.862Z,10.97
2019-04-07T00:36:42.965Z,10.94
2019-04-07T00:37:42.965Z,11.02
2019-04-07T00:38:42.946Z,10.94
2019-04-07T00:39:43.471Z,10.91
2019-04-07T00:40:42.991Z,10.96
2019-04-07T00:41:42.966Z,10.96
2019-04-07T00:42:42.959Z,10.97
2019-04-07T00:43:42.952Z,10.92
2019-04-07T00:44:43.289Z,10.92
2019-04-07T00:45:42.947Z,10.91
2019-04-07T00:46:43.247Z,10.96
2019-04-07T00:47:42.881Z,10.91
2019-04-07T00:48:42.831Z,10.88
2019-04-07T00:49:43.452Z,10.84
2019-04-07T00:50:51.343Z,10.79
2019-04-07T00:51:43.214Z,10.81
2019-04-07T00:52:42.794Z,10.81
2019-04-07T00:53:42.775Z,10.81
2019-04-07T00:54:43.293Z,10.66
2019-04-07T00:55:45.015Z,10.68
2019-04-07T00:56:43.847Z,10.68
2019-04-07T00:57:42.990Z,10.68
2019-04-07T00:58:43.384Z,10.61
2019-04-07T00:59:42.718Z,10.68
2019-04-07T01:00:50.531Z,10.59
2019-04-07T01:01:42.687Z,10.53
2019-04-07T01:02:42.952Z,10.64
2019-04-07T01:03:43.039Z,10.55
2019-04-07T01:04:43.007Z,10.59
2019-04-07T01:05:46.882Z,10.59
2019-04-07T01:06:42.631Z,10.59
2019-04-07T01:07:43.633Z,10.59
2019-04-07T01:08:42.623Z,10.61
2019-04-07T01:09:43.190Z,10.64
2019-04-07T01:10:42.737Z,10.70
2019-04-07T01:11:43.065Z,10.71
2019-04-07T01:12:42.576Z,10.71
2019-04-07T01:13:42.781Z,10.81
2019-04-07T01:14:43.305Z,10.78
2019-04-07T01:15:54.966Z,10.70
2019-04-07T01:16:42.762Z,10.76
2019-04-07T01:17:42.546Z,10.81
2019-04-07T01:18:42.586Z,10.85
2019-04-07T01:19:43.224Z,10.82
2019-04-07T01:20:42.999Z,10.82
2019-04-07T01:21:42.463Z,10.86
2019-04-07T01:22:42.470Z,10.82
2019-04-07T01:23:42.493Z,10.78
2019-04-07T01:24:43.124Z,10.79
2019-04-07T01:25:42.465Z,10.88
2019-04-07T01:26:42.422Z,10.86
2019-04-07T01:27:42.440Z,10.81
2019-04-07T01:28:42.957Z,10.82
2019-04-07T01:29:42.367Z,10.86
2019-04-07T01:30:44.173Z,10.85
2019-04-07T01:31:43.025Z,10.81
2019-04-07T01:32:42.338Z,10.84
2019-04-07T01:33:42.338Z,10.74
2019-04-07T01:34:42.701Z,10.84
2019-04-07T01:35:50.067Z,10.79
2019-04-07T01:36:42.939Z,10.82
2019-04-07T01:37:42.910Z,10.76
2019-04-07T01:38:42.278Z,10.67
2019-04-07T01:39:42.610Z,10.66
2019-04-07T01:40:42.853Z,10.63
2019-04-07T01:41:42.948Z,10.70
2019-04-07T01:42:42.240Z,10.68
2019-04-07T01:43:42.215Z,10.68
2019-04-07T01:44:42.206Z,10.73
2019-04-07T01:45:54.593Z,10.78
2019-04-07T01:46:42.715Z,10.81
2019-04-07T01:47:42.249Z,10.84
2019-04-07T01:48:54.353Z,10.85
2019-04-07T01:49:42.365Z,10.82
2019-04-07T01:50:57.169Z,10.84
2019-04-07T01:51:42.255Z,10.86
2019-04-07T01:52:42.591Z,10.88
2019-04-07T01:53:42.095Z,10.89
2019-04-07T01:54:54.811Z,10.97
2019-04-07T01:55:42.195Z,10.92
2019-04-07T01:57:01.370Z,10.88
2019-04-07T01:57:42.055Z,10.84
2019-04-07T01:58:42.776Z,10.91
2019-04-07T01:59:42.039Z,10.84
2019-04-07T02:00:42.941Z,11.00
2019-04-07T02:01:45.933Z,10.92
2019-04-07T02:02:42.034Z,10.99
2019-04-07T02:03:41.986Z,10.91
2019-04-07T02:04:42.476Z,10.89
2019-04-07T02:05:41.963Z,11.02
2019-04-07T02:06:42.061Z,10.88
2019-04-07T02:07:50.066Z,10.89
2019-04-07T02:08:41.935Z,10.92
2019-04-07T02:09:41.924Z,10.89
2019-04-07T02:10:41.900Z,10.92
2019-04-07T02:11:41.894Z,10.96
2019-04-07T02:12:42.381Z,10.94
2019-04-07T02:13:43.862Z,10.89
2019-04-07T02:14:42.019Z,10.94
2019-04-07T02:15:42.156Z,10.97
2019-04-07T02:16:42.030Z,10.99
2019-04-07T02:17:41.838Z,11.00
2019-04-07T02:18:53.326Z,11.02
2019-04-07T02:19:41.803Z,10.94
2019-04-07T02:20:42.199Z,10.94
2019-04-07T02:21:41.793Z,10.96
2019-04-07T02:22:42.006Z,10.97
2019-04-07T02:23:42.080Z,10.88
2019-04-07T02:24:42.241Z,10.84
2019-04-07T02:25:41.735Z,10.81
2019-04-07T02:26:42.176Z,10.73
2019-04-07T02:27:41.721Z,10.73
2019-04-07T02:28:41.822Z,10.71
2019-04-07T02:29:47.795Z,10.70
2019-04-07T02:30:41.709Z,10.63
2019-04-07T02:31:42.275Z,10.68
2019-04-07T02:32:42.200Z,10.71
2019-04-07T02:33:42.261Z,10.61
2019-04-07T02:34:53.857Z,10.59
2019-04-07T02:35:41.850Z,10.56
2019-04-07T02:36:41.926Z,10.55
2019-04-07T02:37:41.613Z,10.56
2019-04-07T02:38:42.379Z,10.64
2019-04-07T02:39:42.178Z,10.60
2019-04-07T02:40:42.643Z,10.60
2019-04-07T02:41:42.181Z,10.66
2019-04-07T02:42:42.548Z,10.55
2019-04-07T02:43:42.368Z,10.52
2019-04-07T02:44:41.530Z,10.52
2019-04-07T02:45:50.861Z,10.48
2019-04-07T02:46:41.516Z,10.45
2019-04-07T02:47:41.864Z,10.42
2019-04-07T02:48:42.562Z,10.40
2019-04-07T02:49:41.460Z,10.33
2019-04-07T02:50:43.358Z,10.32
2019-04-07T02:51:42.138Z,10.34
2019-04-07T02:52:41.425Z,10.38
2019-04-07T02:53:41.522Z,10.30
2019-04-07T02:54:42.104Z,10.27
2019-04-07T02:55:50.718Z,10.34
2019-04-07T02:56:42.246Z,10.26
2019-04-07T02:57:42.170Z,10.18
2019-04-07T02:58:41.380Z,10.25
2019-04-07T02:59:42.878Z,10.18
2019-04-07T03:00:41.528Z,10.14
2019-04-07T03:01:41.422Z,10.17
2019-04-07T03:02:41.314Z,10.14
2019-04-07T03:03:41.315Z,10.04
2019-04-07T03:04:41.643Z,10.01
2019-04-07T03:05:42.183Z,9.97
2019-04-07T03:06:51.058Z,10.02
2019-04-07T03:07:43.061Z,9.94
2019-04-07T03:08:41.259Z,10.04
2019-04-07T03:09:41.957Z,9.97
2019-04-07T03:10:41.360Z,10.01
2019-04-07T03:11:51.016Z,10.08
2019-04-07T03:12:41.403Z,10.01
2019-04-07T03:13:41.462Z,10.09
2019-04-07T03:14:41.368Z,10.18
2019-04-07T03:15:41.178Z,10.05
2019-04-07T03:16:43.683Z,10.04
2019-04-07T03:17:41.590Z,10.17
2019-04-07T03:18:42.344Z,10.17
2019-04-07T03:19:41.484Z,10.05
2019-04-07T03:20:41.409Z,10.14
2019-04-07T03:21:41.101Z,10.09
2019-04-07T03:22:41.942Z,10.12
2019-04-07T03:23:41.629Z,10.04
2019-04-07T03:24:41.073Z,10.14
2019-04-07T03:25:42.044Z,10.09
2019-04-07T03:26:41.059Z,10.05
2019-04-07T03:27:41.090Z,10.07
2019-04-07T03:28:42.173Z,10.17
2019-04-07T03:29:41.753Z,10.09
2019-04-07T03:30:41.784Z,10.09
2019-04-07T03:31:43.216Z,10.07
2019-04-07T03:32:45.046Z,10.04
2019-04-07T03:33:43.352Z,10.08
2019-04-07T03:34:41.358Z,10.20
2019-04-07T03:35:43.068Z,10.08
2019-04-07T03:37:09.682Z,10.07
2019-04-07T03:37:45.496Z,10.09
2019-04-07T03:38:42.778Z,10.07
2019-04-07T03:39:41.111Z,10.02
2019-04-07T03:40:41.254Z,10.14
2019-04-07T03:41:41.011Z,10.04
2019-04-07T03:42:41.666Z,10.02
2019-04-07T03:43:41.695Z,9.99
2019-04-07T03:44:41.116Z,10.07
2019-04-07T03:45:41.366Z,10.05
2019-04-07T03:46:41.360Z,10.08
2019-04-07T03:47:41.851Z,9.96
2019-04-07T03:48:43.472Z,10.07
2019-04-07T03:49:41.400Z,9.94
2019-04-07T03:50:40.853Z,10.05
2019-04-07T03:51:41.633Z,9.99
2019-04-07T03:52:40.775Z,10.04
2019-04-07T03:53:41.054Z,10.01
2019-04-07T03:54:40.762Z,9.94
2019-04-07T03:55:41.005Z,9.97
2019-04-07T03:56:41.617Z,9.96
2019-04-07T03:57:41.122Z,10.02
2019-04-07T03:58:40.757Z,9.91
2019-04-07T03:59:40.748Z,9.97
2019-04-07T04:00:41.081Z,10.07
2019-04-07T04:01:41.597Z,9.96
2019-04-07T04:02:41.050Z,9.96
2019-04-07T04:03:40.762Z,10.05
2019-04-07T04:04:41.508Z,10.05
2019-04-07T04:05:41.383Z,10.11
2019-04-07T04:06:40.733Z,10.02
2019-04-07T04:07:40.659Z,10.02
2019-04-07T04:08:41.669Z,9.96
2019-04-07T04:09:44.101Z,9.96
2019-04-07T04:10:40.923Z,9.97
2019-04-07T04:11:40.721Z,9.93
2019-04-07T04:12:41.598Z,9.96
2019-04-07T04:13:41.159Z,9.86
2019-04-07T04:14:40.577Z,9.87
2019-04-07T04:15:41.313Z,9.96
2019-04-07T04:16:40.550Z,9.96
2019-04-07T04:17:41.318Z,9.81
2019-04-07T04:18:40.700Z,9.94
2019-04-07T04:19:40.802Z,9.96
2019-04-07T04:20:40.890Z,9.97
2019-04-07T04:21:40.525Z,9.97
2019-04-07T04:22:40.452Z,9.94
2019-04-07T04:23:42.989Z,9.96
2019-04-07T04:24:40.471Z,9.97
2019-04-07T04:25:40.749Z,9.93
2019-04-07T04:26:40.499Z,10.01
2019-04-07T04:27:40.407Z,9.91
2019-04-07T04:28:40.859Z,9.84
2019-04-07T04:29:41.440Z,9.84
2019-04-07T04:30:40.397Z,9.72
2019-04-07T04:31:40.643Z,9.75
2019-04-07T04:32:41.250Z,9.69
2019-04-07T04:33:40.594Z,9.72
2019-04-07T04:34:41.025Z,9.69
2019-04-07T04:35:40.946Z,9.60
2019-04-07T04:36:40.574Z,9.65
2019-04-07T04:37:46.382Z,9.56
2019-04-07T04:38:41.267Z,9.64
2019-04-07T04:39:41.024Z,9.58
2019-04-07T04:40:42.678Z,9.61
2019-04-07T04:41:40.553Z,9.65
2019-04-07T04:42:40.813Z,9.57
2019-04-07T04:43:40.451Z,9.68
2019-04-07T04:44:40.536Z,9.66
2019-04-07T04:45:40.627Z,9.65
2019-04-07T04:46:41.138Z,9.61
2019-04-07T04:47:40.737Z,9.58
2019-04-07T04:48:40.953Z,9.65
2019-04-07T04:49:40.391Z,9.65
2019-04-07T04:50:40.178Z,9.65
2019-04-07T04:51:41.010Z,9.65
2019-04-07T04:52:40.827Z,9.60
2019-04-07T04:53:40.272Z,9.66
2019-04-07T04:54:40.823Z,9.66
2019-04-07T04:55:40.521Z,9.68
2019-04-07T04:56:40.068Z,9.71
2019-04-07T04:57:40.502Z,9.61
2019-04-07T04:58:40.074Z,9.68
2019-04-07T04:59:40.321Z,9.68
2019-04-07T05:00:41.209Z,9.61
2019-04-07T05:01:40.962Z,9.78
2019-04-07T05:02:39.999Z,9.65
2019-04-07T05:03:40.572Z,9.71
2019-04-07T05:04:39.980Z,9.69
2019-04-07T05:05:40.027Z,9.78
2019-04-07T05:06:39.972Z,9.86
2019-04-07T05:07:49.747Z,9.87
2019-04-07T05:08:40.937Z,9.83
2019-04-07T05:09:46.214Z,9.79
2019-04-07T05:10:41.584Z,9.89
2019-04-07T05:11:40.720Z,9.91
2019-04-07T05:12:40.301Z,9.93
2019-04-07T05:13:39.889Z,10.01
2019-04-07T05:14:40.083Z,10.09
2019-04-07T05:15:39.963Z,10.12
2019-04-07T05:16:39.983Z,10.07
2019-04-07T05:17:40.278Z,10.05
2019-04-07T05:18:39.828Z,10.26
2019-04-07T05:19:42.756Z,10.23
2019-04-07T05:20:39.867Z,10.40
2019-04-07T05:21:40.409Z,10.52
2019-04-07T05:22:39.823Z,10.71
2019-04-07T05:23:39.795Z,10.76
2019-04-07T05:24:40.059Z,10.86
2019-04-07T05:25:40.309Z,10.86
2019-04-07T05:26:40.476Z,10.94
2019-04-07T05:27:41.615Z,11.14
2019-04-07T05:28:39.755Z,11.04
2019-04-07T05:29:40.181Z,11.11
2019-04-07T05:30:39.691Z,11.27
2019-04-07T05:31:40.141Z,11.37
2019-04-07T05:32:40.003Z,11.47
2019-04-07T05:33:39.960Z,11.46
2019-04-07T05:34:40.272Z,11.64
2019-04-07T05:35:39.636Z,11.65
2019-04-07T05:36:40.120Z,11.78
2019-04-07T05:37:39.651Z,11.85
2019-04-07T05:38:39.610Z,11.98
2019-04-07T05:39:39.653Z,12.07
2019-04-07T05:40:40.017Z,12.12
2019-04-07T05:41:39.569Z,12.19
2019-04-07T05:42:40.484Z,12.16
2019-04-07T05:43:39.554Z,12.29
2019-04-07T05:44:39.801Z,12.45
2019-04-07T05:45:40.000Z,12.54
2019-04-07T05:46:42.343Z,12.53
2019-04-07T05:47:43.194Z,12.67
2019-04-07T05:48:40.532Z,12.54
2019-04-07T05:49:39.481Z,12.75
2019-04-07T05:50:39.565Z,12.78
2019-04-07T05:51:40.191Z,12.79
2019-04-07T05:52:40.689Z,12.83
2019-04-07T05:53:39.951Z,13.00
2019-04-07T05:54:39.485Z,13.12
2019-04-07T05:55:39.429Z,13.38
2019-04-07T05:56:40.300Z,13.49
2019-04-07T05:57:39.919Z,13.54
2019-04-07T05:58:41.095Z,13.75
2019-04-07T05:59:41.786Z,13.78
2019-04-07T06:00:39.355Z,13.89
2019-04-07T06:01:40.143Z,14.07
2019-04-07T06:02:39.387Z,14.09
2019-04-07T06:03:42.826Z,14.25
2019-04-07T06:04:39.443Z,14.18
2019-04-07T06:05:40.014Z,14.24
2019-04-07T06:06:41.471Z,14.33
2019-04-07T06:07:39.289Z,14.29
2019-04-07T06:08:40.819Z,14.18
2019-04-07T06:09:39.266Z,14.37
2019-04-07T06:10:39.253Z,14.55
2019-04-07T06:11:40.034Z,14.40
2019-04-07T06:12:41.709Z,14.39
2019-04-07T06:13:39.265Z,14.62
2019-04-07T06:14:39.195Z,14.65
2019-04-07T06:15:39.214Z,14.77
2019-04-07T06:16:39.223Z,14.62
2019-04-07T06:17:39.202Z,14.89
2019-04-07T06:18:39.207Z,15.17
2019-04-07T06:19:41.215Z,15.35
2019-04-07T06:20:39.226Z,15.67
2019-04-07T06:21:39.872Z,15.78
2019-04-07T06:22:39.133Z,15.64
2019-04-07T06:23:39.541Z,15.44
2019-04-07T06:24:39.456Z,15.64
2019-04-07T06:25:41.952Z,15.87
2019-04-07T06:26:40.916Z,15.64
2019-04-07T06:27:39.351Z,15.67
2019-04-07T06:28:39.294Z,15.75
2019-04-07T06:29:39.047Z,15.75
2019-04-07T06:30:39.520Z,15.87
2019-04-07T06:31:39.092Z,16.04
2019-04-07T06:32:39.751Z,16.24
2019-04-07T06:33:39.383Z,16.23
2019-04-07T06:34:40.997Z,16.41
2019-04-07T06:35:39.035Z,16.30
2019-04-07T06:36:39.666Z,16.05
2019-04-07T06:37:39.749Z,16.01
2019-04-07T06:38:43.284Z,15.72
2019-04-07T06:39:40.670Z,15.76
2019-04-07T06:40:39.293Z,15.64
2019-04-07T06:41:39.076Z,15.83
2019-04-07T06:42:38.950Z,16.08
2019-04-07T06:43:40.138Z,16.21
2019-04-07T06:44:38.885Z,16.20
2019-04-07T06:45:38.900Z,16.35
2019-04-07T06:46:39.052Z,16.23
2019-04-07T06:47:38.874Z,16.30
2019-04-07T06:48:40.613Z,16.83
2019-04-07T06:49:43.127Z,16.82
2019-04-07T06:50:49.409Z,16.81
2019-04-07T06:51:39.844Z,16.79
2019-04-07T06:52:41.030Z,16.68
2019-04-07T06:53:39.191Z,16.60
2019-04-07T06:54:38.827Z,16.67
2019-04-07T06:55:39.452Z,16.73
2019-04-07T06:56:38.791Z,17.01
2019-04-07T06:57:38.883Z,17.01
2019-04-07T06:58:41.607Z,17.37
2019-04-07T06:59:39.378Z,17.46
2019-04-07T07:00:38.752Z,17.11
2019-04-07T07:01:38.684Z,17.06
2019-04-07T07:02:39.028Z,17.38
2019-04-07T07:03:42.050Z,17.41
2019-04-07T07:04:42.143Z,17.33
2019-04-07T07:05:43.016Z,17.23
2019-04-07T07:06:38.656Z,17.40
2019-04-07T07:07:38.907Z,17.44
2019-04-07T07:08:45.876Z,17.40
2019-04-07T07:09:39.753Z,17.75
2019-04-07T07:10:40.756Z,17.90
2019-04-07T07:11:42.813Z,17.84
2019-04-07T07:12:39.963Z,17.40
2019-04-07T07:13:41.346Z,17.58
2019-04-07T07:14:44.218Z,17.48
2019-04-07T07:15:39.695Z,17.51
2019-04-07T07:16:42.601Z,17.18
2019-04-07T07:17:40.181Z,17.36
2019-04-07T07:18:39.259Z,17.63
2019-04-07T07:19:39.155Z,18.05
2019-04-07T07:20:38.472Z,18.18
2019-04-07T07:21:39.551Z,18.33
2019-04-07T07:22:40.222Z,18.21
2019-04-07T07:23:38.597Z,18.26
2019-04-07T07:24:39.279Z,18.00
2019-04-07T07:25:38.423Z,18.02
2019-04-07T07:26:38.669Z,18.29
2019-04-07T07:27:40.375Z,18.18
2019-04-07T07:28:39.084Z,18.51
2019-04-07T07:29:38.945Z,18.44
2019-04-07T07:30:38.357Z,18.26
2019-04-07T07:31:39.100Z,18.23
2019-04-07T07:32:38.946Z,18.36
2019-04-07T07:33:40.667Z,18.67
2019-04-07T07:34:41.948Z,18.70
2019-04-07T07:35:38.856Z,19.21
2019-04-07T07:36:38.325Z,19.21
2019-04-07T07:37:38.770Z,19.22
2019-04-07T07:38:38.472Z,19.23
2019-04-07T07:39:41.945Z,19.00
2019-04-07T07:40:38.583Z,18.95
2019-04-07T07:41:38.870Z,19.08
2019-04-07T07:42:38.233Z,19.29
2019-04-07T07:43:38.246Z,19.61
2019-04-07T07:44:39.772Z,19.81
2019-04-07T07:45:40.370Z,19.73
2019-04-07T07:46:39.733Z,19.73
2019-04-07T07:47:38.410Z,19.32
2019-04-07T07:48:38.885Z,19.59
2019-04-07T07:49:40.913Z,19.66
2019-04-07T07:50:40.320Z,19.78
2019-04-07T07:51:39.533Z,19.50
2019-04-07T07:52:38.718Z,19.37
2019-04-07T07:53:38.350Z,19.11
2019-04-07T07:54:38.638Z,19.29
2019-04-07T07:55:38.655Z,19.31
2019-04-07T07:56:41.379Z,19.28
2019-04-07T07:57:38.181Z,19.21
2019-04-07T07:58:38.478Z,19.11
2019-04-07T07:59:39.413Z,19.02
2019-04-07T08:00:41.580Z,18.95
2019-04-07T08:01:39.808Z,18.81
2019-04-07T08:02:38.224Z,18.87
2019-04-07T08:03:37.986Z,19.23
2019-04-07T08:04:38.690Z,19.37
2019-04-07T08:05:37.996Z,18.88
2019-04-07T08:06:40.244Z,19.07
2019-04-07T08:07:38.017Z,18.90
2019-04-07T08:08:38.005Z,19.06
2019-04-07T08:09:38.079Z,18.88
2019-04-07T08:10:38.206Z,18.67
2019-04-07T08:11:37.924Z,18.72
2019-04-07T08:12:37.904Z,18.90
2019-04-07T08:13:43.321Z,18.90
2019-04-07T08:14:38.989Z,18.88
2019-04-07T08:15:37.899Z,19.13
2019-04-07T08:16:37.869Z,19.74
2019-04-07T08:17:37.834Z,19.37
2019-04-07T08:18:40.648Z,19.22
2019-04-07T08:19:42.302Z,19.36
2019-04-07T08:20:40.922Z,19.74
2019-04-07T08:21:39.171Z,19.68
2019-04-07T08:22:42.371Z,19.23
2019-04-07T08:23:41.183Z,19.41
2019-04-07T08:24:37.800Z,19.14
2019-04-07T08:25:37.875Z,19.25
2019-04-07T08:26:38.214Z,19.46
2019-04-07T08:27:37.731Z,19.47
2019-04-07T08:28:38.175Z,19.83
2019-04-07T08:29:39.017Z,19.54
2019-04-07T08:30:38.271Z,19.69
2019-04-07T08:31:38.432Z,19.88
2019-04-07T08:32:37.673Z,19.66
2019-04-07T08:33:38.534Z,19.94
2019-04-07T08:34:37.762Z,19.66
2019-04-07T08:35:39.587Z,19.40
2019-04-07T08:36:38.067Z,19.50
2019-04-07T08:37:38.359Z,19.81
2019-04-07T08:38:37.639Z,20.48
2019-04-07T08:39:37.633Z,20.67
2019-04-07T08:40:38.937Z,20.33
2019-04-07T08:41:40.646Z,20.54
2019-04-07T08:42:38.146Z,20.87
2019-04-07T08:43:37.557Z,21.06
2019-04-07T08:44:37.586Z,21.82
2019-04-07T08:45:38.127Z,21.27
2019-04-07T08:46:41.622Z,20.72
2019-04-07T08:47:38.076Z,20.36
2019-04-07T08:48:37.544Z,20.42
2019-04-07T08:49:38.065Z,20.50
2019-04-07T08:50:37.513Z,20.43
2019-04-07T08:51:37.578Z,20.29
2019-04-07T08:52:40.765Z,20.59
2019-04-07T08:53:38.905Z,21.09
2019-04-07T08:54:37.483Z,21.16
2019-04-07T08:55:37.419Z,21.43
2019-04-07T08:56:37.696Z,21.62
2019-04-07T08:57:37.410Z,21.49
2019-04-07T08:58:38.947Z,21.58
2019-04-07T08:59:40.714Z,21.21
2019-04-07T09:00:38.387Z,20.41
2019-04-07T09:01:37.395Z,20.28
2019-04-07T09:02:37.350Z,20.67
2019-04-07T09:03:37.335Z,20.61
2019-04-07T09:04:37.397Z,20.55
2019-04-07T09:05:37.311Z,21.24
2019-04-07T09:06:37.493Z,21.01
2019-04-07T09:07:37.926Z,21.09
2019-04-07T09:08:39.047Z,20.85
2019-04-07T09:09:42.757Z,20.41
2019-04-07T09:10:38.272Z,20.66
2019-04-07T09:11:39.761Z,21.09
2019-04-07T09:12:37.278Z,20.88
2019-04-07T09:13:37.416Z,21.31
2019-04-07T09:14:39.709Z,21.03
2019-04-07T09:15:39.140Z,20.61
2019-04-07T09:16:37.205Z,20.32
2019-04-07T09:17:43.524Z,20.48
2019-04-07T09:18:38.919Z,20.16
2019-04-07T09:19:37.216Z,20.17
2019-04-07T09:20:40.896Z,20.17
2019-04-07T09:21:41.394Z,20.39
2019-04-07T09:22:37.787Z,20.77
2019-04-07T09:23:37.134Z,20.89
2019-04-07T09:24:37.124Z,20.76
2019-04-07T09:25:39.977Z,20.59
2019-04-07T09:26:40.606Z,20.73
2019-04-07T09:27:38.094Z,20.36
2019-04-07T09:28:37.782Z,20.39
2019-04-07T09:29:37.656Z,20.42
2019-04-07T09:30:37.842Z,19.94
2019-04-07T09:31:37.045Z,19.99
2019-04-07T09:32:37.024Z,20.21
2019-04-07T09:33:38.104Z,20.17
2019-04-07T09:34:37.011Z,20.92
2019-04-07T09:35:37.665Z,21.27
2019-04-07T09:36:37.418Z,21.98
2019-04-07T09:37:37.747Z,22.09
2019-04-07T09:38:36.971Z,22.17
2019-04-07T09:39:52.920Z,21.92
2019-04-07T09:40:38.306Z,21.77
2019-04-07T09:41:38.334Z,21.28
2019-04-07T09:42:36.913Z,21.61
2019-04-07T09:43:36.909Z,21.77
2019-04-07T09:44:37.761Z,21.75
2019-04-07T09:45:39.363Z,21.68
2019-04-07T09:46:41.647Z,21.68
2019-04-07T09:47:38.056Z,21.37
2019-04-07T09:48:39.063Z,20.95
2019-04-07T09:49:36.841Z,20.79
2019-04-07T09:50:37.546Z,21.06
2019-04-07T09:51:40.974Z,21.14
2019-04-07T09:52:37.035Z,21.06
2019-04-07T09:53:37.083Z,21.58
2019-04-07T09:54:36.785Z,20.94
2019-04-07T09:55:36.835Z,20.94
2019-04-07T09:56:37.472Z,21.88
2019-04-07T09:57:38.706Z,22.27
2019-04-07T09:58:39.224Z,22.57
2019-04-07T09:59:37.350Z,21.82
2019-04-07T10:00:36.730Z,21.62
2019-04-07T10:01:36.758Z,21.13
2019-04-07T10:02:37.255Z,20.95
2019-04-07T10:03:38.080Z,21.14
2019-04-07T10:04:38.571Z,21.38
2019-04-07T10:05:40.181Z,21.22
2019-04-07T10:06:39.076Z,21.14
2019-04-07T10:07:40.291Z,21.09
2019-04-07T10:08:37.809Z,21.47
2019-04-07T10:09:36.834Z,22.09
2019-04-07T10:10:37.144Z,22.03
2019-04-07T10:11:37.357Z,21.82
2019-04-07T10:12:36.643Z,22.33
2019-04-07T10:13:36.585Z,22.07
2019-04-07T10:14:36.568Z,21.94
2019-04-07T10:15:37.427Z,22.00
2019-04-07T10:16:36.559Z,22.20
2019-04-07T10:17:37.234Z,21.47
2019-04-07T10:18:36.871Z,21.80
2019-04-07T10:19:37.377Z,21.37
2019-04-07T10:20:36.887Z,21.88
2019-04-07T10:21:36.943Z,22.09
2019-04-07T10:22:37.349Z,22.42
2019-04-07T10:23:36.500Z,22.90
2019-04-07T10:24:37.072Z,22.86
2019-04-07T10:25:36.471Z,22.54
2019-04-07T10:26:36.450Z,21.92
2019-04-07T10:27:36.850Z,22.12
2019-04-07T10:28:39.942Z,21.67
2019-04-07T10:29:37.695Z,21.56
2019-04-07T10:30:37.029Z,22.17
2019-04-07T10:31:36.417Z,22.09
2019-04-07T10:32:36.433Z,22.07
2019-04-07T10:33:36.369Z,21.88
2019-04-07T10:34:36.458Z,22.55
2019-04-07T10:35:36.350Z,22.94
2019-04-07T10:36:36.371Z,22.92
2019-04-07T10:37:36.363Z,22.68
2019-04-07T10:38:36.414Z,23.02
2019-04-07T10:39:37.026Z,23.19
2019-04-07T10:40:36.345Z,23.25
2019-04-07T10:41:36.459Z,23.05
2019-04-07T10:42:36.984Z,22.18
2019-04-07T10:43:36.395Z,22.12
2019-04-07T10:44:36.263Z,22.22
2019-04-07T10:45:36.243Z,22.25
2019-04-07T10:46:36.301Z,21.71
2019-04-07T10:47:36.820Z,21.80
2019-04-07T10:48:36.691Z,21.56
2019-04-07T10:49:36.267Z,21.65
2019-04-07T10:50:36.804Z,22.14
2019-04-07T10:51:36.489Z,21.83
2019-04-07T10:52:36.164Z,21.99
2019-04-07T10:53:36.840Z,21.94
2019-04-07T10:54:36.985Z,22.12
2019-04-07T10:55:36.289Z,21.99
2019-04-07T10:56:36.135Z,22.43
2019-04-07T10:57:36.709Z,22.37
2019-04-07T10:58:36.830Z,22.57
2019-04-07T10:59:36.884Z,22.45
2019-04-07T11:00:36.770Z,22.39
2019-04-07T11:01:36.329Z,22.33
2019-04-07T11:02:36.169Z,22.39
2019-04-07T11:03:36.265Z,22.70
2019-04-07T11:04:36.039Z,22.57
2019-04-07T11:05:36.262Z,22.70
2019-04-07T11:06:36.018Z,22.42
2019-04-07T11:07:36.022Z,22.46
2019-04-07T11:08:36.035Z,22.79
2019-04-07T11:09:36.715Z,22.82
2019-04-07T11:10:39.050Z,23.46
2019-04-07T11:11:36.025Z,22.82
2019-04-07T11:12:36.684Z,23.13
2019-04-07T11:13:36.151Z,22.51
2019-04-07T11:14:35.945Z,22.06
2019-04-07T11:15:36.197Z,22.42
2019-04-07T11:16:36.589Z,21.98
2019-04-07T11:17:35.918Z,21.88
2019-04-07T11:18:36.474Z,21.79
2019-04-07T11:19:36.297Z,22.54
2019-04-07T11:20:36.271Z,22.46
2019-04-07T11:21:36.000Z,23.04
2019-04-07T11:22:36.929Z,22.45
2019-04-07T11:23:35.964Z,22.70
2019-04-07T11:24:35.882Z,22.80
2019-04-07T11:25:35.832Z,22.90
2019-04-07T11:26:36.463Z,23.25
2019-04-07T11:27:36.548Z,23.83
2019-04-07T11:28:35.793Z,24.31
2019-04-07T11:29:37.748Z,24.65
2019-04-07T11:30:35.791Z,24.67
2019-04-07T11:31:36.290Z,24.30
2019-04-07T11:32:35.996Z,24.64
2019-04-07T11:33:36.223Z,24.32
2019-04-07T11:34:36.568Z,23.70
2019-04-07T11:35:35.715Z,23.63
2019-04-07T11:36:36.407Z,23.68
2019-04-07T11:37:36.410Z,23.87
2019-04-07T11:38:36.210Z,23.97
2019-04-07T11:39:36.218Z,23.07
2019-04-07T11:40:43.285Z,23.01
2019-04-07T11:41:37.312Z,23.33
2019-04-07T11:42:35.636Z,23.65
2019-04-07T11:43:35.914Z,23.83
2019-04-07T11:44:35.707Z,23.28
2019-04-07T11:45:35.605Z,23.39
2019-04-07T11:46:35.603Z,22.80
2019-04-07T11:47:36.222Z,23.50
2019-04-07T11:48:35.579Z,23.85
2019-04-07T11:49:35.768Z,24.03
2019-04-07T11:50:36.295Z,24.40
2019-04-07T11:51:35.820Z,23.23
2019-04-07T11:52:36.430Z,23.27
2019-04-07T11:53:35.523Z,24.18
2019-04-07T11:54:35.728Z,23.53
2019-04-07T11:55:35.519Z,22.72
2019-04-07T11:56:35.513Z,23.28
2019-04-07T11:57:35.495Z,24.28
2019-04-07T11:58:36.043Z,24.60
2019-04-07T11:59:35.959Z,24.20
2019-04-07T12:00:38.650Z,23.10
2019-04-07T12:01:35.452Z,23.05
2019-04-07T12:02:36.295Z,23.75
2019-04-07T12:03:35.609Z,23.23
2019-04-07T12:04:36.367Z,22.61
2019-04-07T12:05:35.439Z,23.23
2019-04-07T12:06:35.386Z,23.85
2019-04-07T12:07:35.585Z,24.32
2019-04-07T12:08:36.583Z,24.81
2019-04-07T12:09:36.003Z,24.61
2019-04-07T12:10:35.396Z,24.39
2019-04-07T12:11:36.253Z,24.90
2019-04-07T12:12:35.612Z,25.73
2019-04-07T12:13:35.320Z,25.65
2019-04-07T12:14:35.313Z,25.88
2019-04-07T12:15:35.301Z,25.47
2019-04-07T12:16:35.324Z,24.18
2019-04-07T12:17:39.479Z,23.87
2019-04-07T12:18:36.282Z,23.42
2019-04-07T12:19:35.265Z,23.20
2019-04-07T12:20:36.183Z,23.15
2019-04-07T12:21:36.939Z,23.98
2019-04-07T12:22:35.218Z,24.57
2019-04-07T12:23:35.209Z,24.46
2019-04-07T12:24:35.220Z,24.12
2019-04-07T12:25:35.236Z,23.76
2019-04-07T12:26:39.417Z,23.43
2019-04-07T12:27:36.166Z,23.19
2019-04-07T12:28:35.391Z,23.40
2019-04-07T12:29:35.324Z,24.25
2019-04-07T12:30:35.860Z,24.67
2019-04-07T12:31:35.877Z,25.47
2019-04-07T12:32:35.926Z,26.06
2019-04-07T12:33:38.629Z,25.76
2019-04-07T12:34:35.142Z,25.75
2019-04-07T12:35:35.297Z,25.99
2019-04-07T12:36:35.184Z,26.20
2019-04-07T12:37:38.419Z,25.69
2019-04-07T12:38:36.783Z,25.20
2019-04-07T12:39:36.052Z,24.34
2019-04-07T12:40:35.057Z,23.73
2019-04-07T12:41:35.738Z,23.15
2019-04-07T12:42:35.703Z,22.06
2019-04-07T12:43:35.869Z,21.98
2019-04-07T12:44:35.419Z,22.54
2019-04-07T12:45:36.095Z,22.12
2019-04-07T12:46:34.968Z,22.85
2019-04-07T12:47:35.490Z,23.32
2019-04-07T12:48:34.957Z,22.97
2019-04-07T12:49:36.278Z,22.14
2019-04-07T12:50:35.643Z,21.22
2019-04-07T12:51:35.078Z,20.95
2019-04-07T12:52:35.490Z,21.21
2019-04-07T12:53:36.502Z,22.36
2019-04-07T12:54:35.273Z,23.42
2019-04-07T12:55:35.033Z,24.08